Time;durP1;ratioP1;P1;durP2;ratioP2;P2;SDS_P1;SDS_P2;PMS_P1;PMS_P2;Temp;Humidity;BMP_temperature;BMP_pressure;BME280_temperature;BME280_humidity;BME280_pressure;Samples;Min_cycle;Max_cycle;Signal;HPM_P1;HPM_P2
2024/03/31 00:01:42;;;;;;;10.35;3.50;;;8.80;95.70;;;;;;6219077;28;20489;-78
2024/03/31 00:04:42;;;;;;;15.73;3.90;;;8.80;96.80;;;;;;6218243;28;20092;-78
2024/03/31 00:07:43;;;;;;;11.35;3.13;;;8.80;97.00;;;;;;6218268;28;20457;-78
2024/03/31 00:10:44;;;;;;;12.70;3.60;;;8.80;97.20;;;;;;6202015;28;20065;-78
2024/03/31 00:13:44;;;;;;;17.77;4.20;;;8.70;98.20;;;;;;6199551;28;20097;-80
2024/03/31 00:16:45;;;;;;;9.60;3.72;;;8.70;99.10;;;;;;6217965;28;20531;-80
2024/03/31 00:19:46;;;;;;;12.88;4.30;;;8.70;99.80;;;;;;6218248;28;20054;-80
2024/03/31 00:22:46;;;;;;;13.48;3.42;;;8.70;99.90;;;;;;6194730;28;20058;-79
2024/03/31 00:25:47;;;;;;;15.80;3.83;;;8.60;99.90;;;;;;6198710;28;20501;-80
2024/03/31 00:28:48;;;;;;;11.80;3.45;;;8.60;99.90;;;;;;6212500;28;20124;-80
2024/03/31 00:31:48;;;;;;;10.73;3.20;;;8.60;99.90;;;;;;6216243;28;20058;-79
2024/03/31 00:34:50;;;;;;;10.73;3.70;;;8.50;99.90;;;;;;6218023;28;20128;-80
2024/03/31 00:37:50;;;;;;;10.20;4.30;;;8.60;99.90;;;;;;6217687;28;20045;-79
2024/03/31 00:40:51;;;;;;;10.52;3.90;;;8.50;99.90;;;;;;6217392;28;20062;-79
2024/03/31 00:43:51;;;;;;;10.75;4.30;;;8.40;99.90;;;;;;6203144;28;20061;-78
2024/03/31 00:46:52;;;;;;;13.93;3.97;;;8.40;99.90;;;;;;6217316;28;20058;-80
2024/03/31 00:49:53;;;;;;;11.52;3.92;;;8.30;99.90;;;;;;6217779;28;20062;-79
2024/03/31 00:52:53;;;;;;;9.20;3.95;;;8.20;99.90;;;;;;6217807;28;20468;-78
2024/03/31 00:55:54;;;;;;;12.73;4.00;;;8.10;99.90;;;;;;6201246;28;20104;-79
2024/03/31 00:58:55;;;;;;;13.05;3.80;;;8.10;99.90;;;;;;6208246;28;20050;-78
2024/03/31 01:01:56;;;;;;;14.45;4.10;;;7.90;99.90;;;;;;6201135;28;20084;-78
2024/03/31 01:04:56;;;;;;;9.40;4.18;;;7.90;99.90;;;;;;6200837;28;20058;-79
2024/03/31 01:07:57;;;;;;;8.80;3.80;;;7.90;99.90;;;;;;6217383;28;20054;-79
2024/03/31 01:10:58;;;;;;;12.82;3.85;;;7.70;99.90;;;;;;6217318;28;20149;-79
2024/03/31 01:13:58;;;;;;;11.60;4.00;;;7.60;99.90;;;;;;6211653;28;20425;-79
2024/03/31 01:16:59;;;;;;;11.38;4.40;;;7.60;99.90;;;;;;6217523;28;20148;-79
2024/03/31 01:20:00;;;;;;;12.60;4.30;;;7.60;99.90;;;;;;6217332;28;20421;-79
2024/03/31 01:23:00;;;;;;;12.70;4.35;;;7.60;99.90;;;;;;6217419;28;20138;-79
2024/03/31 01:26:01;;;;;;;13.10;4.40;;;7.50;99.90;;;;;;6217043;28;20058;-79
2024/03/31 01:29:02;;;;;;;10.50;3.60;;;7.30;99.90;;;;;;6198618;28;20089;-78
2024/03/31 01:32:02;;;;;;;8.70;3.65;;;7.10;99.90;;;;;;6215330;28;20065;-78
2024/03/31 01:35:03;;;;;;;10.38;3.58;;;6.90;99.90;;;;;;6216755;28;20054;-79
2024/03/31 01:38:04;;;;;;;11.57;3.95;;;6.80;99.90;;;;;;6220231;28;20058;-79
2024/03/31 01:41:04;;;;;;;10.93;3.55;;;6.70;99.90;;;;;;6221619;28;20109;-79
2024/03/31 01:44:05;;;;;;;11.32;3.97;;;6.50;99.90;;;;;;6211974;28;20417;-79
2024/03/31 01:47:06;;;;;;;13.38;3.88;;;6.40;99.90;;;;;;6221587;28;20104;-79
2024/03/31 01:50:06;;;;;;;13.00;4.05;;;6.40;99.90;;;;;;6221567;28;20441;-78
2024/03/31 01:53:07;;;;;;;10.93;3.85;;;6.30;99.90;;;;;;6221152;28;20141;-79
2024/03/31 01:56:08;;;;;;;10.57;3.95;;;6.20;99.90;;;;;;6221357;28;20057;-80
2024/03/31 01:59:08;;;;;;;9.82;4.13;;;6.10;99.90;;;;;;6209418;28;20053;-79
2024/03/31 02:02:09;;;;;;;11.02;3.53;;;6.10;99.90;;;;;;6221353;28;20401;-80
2024/03/31 02:05:09;;;;;;;10.10;4.40;;;6.00;99.90;;;;;;6219177;28;20395;-78
2024/03/31 02:08:10;;;;;;;11.95;4.18;;;6.00;99.90;;;;;;6221337;28;20506;-80
2024/03/31 02:11:11;;;;;;;14.48;4.10;;;5.90;99.90;;;;;;6221130;28;20058;-78
2024/03/31 02:14:11;;;;;;;11.85;4.45;;;5.90;99.90;;;;;;6211190;28;20429;-80
2024/03/31 02:17:12;;;;;;;10.68;4.38;;;5.80;99.90;;;;;;6220978;28;20061;-80
2024/03/31 02:20:14;;;;;;;12.57;4.40;;;5.60;99.90;;;;;;6220694;28;20108;-79
2024/03/31 02:23:14;;;;;;;12.05;4.88;;;5.70;99.90;;;;;;6204338;28;20503;-79
2024/03/31 02:26:15;;;;;;;17.00;5.22;;;5.70;99.90;;;;;;6204567;28;20057;-79
2024/03/31 02:29:16;;;;;;;13.00;4.88;;;5.60;99.90;;;;;;6215389;28;20059;-79
2024/03/31 02:32:17;;;;;;;15.38;5.15;;;5.50;99.90;;;;;;6203887;28;20193;-79
2024/03/31 02:35:17;;;;;;;15.27;5.13;;;5.40;99.90;;;;;;6220269;28;20050;-79
2024/03/31 02:38:18;;;;;;;10.93;5.20;;;5.40;99.90;;;;;;6204030;28;20058;-79
2024/03/31 02:41:18;;;;;;;14.00;4.90;;;5.30;99.90;;;;;;6220444;28;20058;-80
2024/03/31 02:44:19;;;;;;;12.52;5.05;;;5.20;99.90;;;;;;6201774;28;20461;-80
2024/03/31 02:47:20;;;;;;;12.57;5.30;;;5.30;99.90;;;;;;6220073;28;20059;-77
2024/03/31 02:50:20;;;;;;;13.38;4.88;;;5.20;99.90;;;;;;6219815;28;20046;-78
2024/03/31 02:53:21;;;;;;;12.95;5.10;;;5.20;99.90;;;;;;6220327;28;20054;-78
2024/03/31 02:56:21;;;;;;;14.73;5.65;;;5.10;99.90;;;;;;6204040;28;20429;-78
2024/03/31 02:59:22;;;;;;;16.33;5.45;;;5.10;99.90;;;;;;6206055;28;20058;-79
2024/03/31 03:02:23;;;;;;;14.23;5.70;;;5.10;99.90;;;;;;6203737;28;20116;-80
2024/03/31 03:05:23;;;;;;;17.88;6.30;;;5.10;99.90;;;;;;6217683;28;20061;-80
2024/03/31 03:08:24;;;;;;;14.27;6.78;;;5.10;99.90;;;;;;6219914;28;20058;-79
2024/03/31 03:11:25;;;;;;;16.98;6.63;;;5.10;99.90;;;;;;6219469;28;20655;-80
2024/03/31 03:14:25;;;;;;;19.80;7.45;;;5.00;99.90;;;;;;6209818;28;20054;-80
2024/03/31 03:17:26;;;;;;;17.15;7.20;;;5.00;99.90;;;;;;6219658;28;20522;-79
2024/03/31 03:20:27;;;;;;;23.73;7.10;;;5.00;99.90;;;;;;6219562;28;20061;-80
2024/03/31 03:23:27;;;;;;;20.08;7.75;;;4.90;99.90;;;;;;6219418;28;20513;-80
2024/03/31 03:26:28;;;;;;;18.20;7.30;;;4.90;99.90;;;;;;6202749;28;20061;-80
2024/03/31 03:29:29;;;;;;;19.45;6.88;;;4.90;99.90;;;;;;6209407;28;20058;-80
2024/03/31 03:32:29;;;;;;;19.00;7.40;;;4.90;99.90;;;;;;6202557;28;20425;-79
2024/03/31 03:35:30;;;;;;;20.98;6.85;;;4.80;99.90;;;;;;6218709;28;20062;-79
2024/03/31 03:38:30;;;;;;;17.60;7.05;;;4.90;99.90;;;;;;6202539;28;20061;-79
2024/03/31 03:41:32;;;;;;;19.63;7.05;;;4.90;99.90;;;;;;6202886;28;20057;-79
2024/03/31 03:44:33;;;;;;;19.20;7.90;;;4.90;99.90;;;;;;6203262;22;20061;-78
2024/03/31 03:47:33;;;;;;;15.90;6.47;;;4.90;99.90;;;;;;6218074;28;20151;-79
2024/03/31 03:50:34;;;;;;;18.92;7.35;;;4.80;99.90;;;;;;6195192;28;20133;-79
2024/03/31 03:53:35;;;;;;;18.73;7.28;;;4.80;99.90;;;;;;6218570;28;20140;-79
2024/03/31 03:56:38;;;;;;;16.05;7.32;;;4.80;99.90;;;;;;6178643;28;20136;-79
2024/03/31 03:59:39;;;;;;;20.00;8.23;;;4.70;99.90;;;;;;6194555;28;20065;-79
2024/03/31 04:02:39;;;;;;;17.45;8.00;;;4.60;99.90;;;;;;6177915;28;20066;-78
2024/03/31 04:05:41;;;;;;;18.17;7.70;;;4.60;99.90;;;;;;6207658;28;20651;-78
2024/03/31 04:08:42;;;;;;;18.55;7.32;;;4.60;99.90;;;;;;6217720;28;20690;-78
2024/03/31 04:11:43;;;;;;;19.83;8.13;;;4.60;99.90;;;;;;6194697;28;20062;-78
2024/03/31 04:14:43;;;;;;;18.95;7.32;;;4.60;99.90;;;;;;6181051;28;20065;-78
2024/03/31 04:17:44;;;;;;;17.15;8.00;;;4.70;99.90;;;;;;6217700;28;20057;-79
2024/03/31 04:20:44;;;;;;;14.50;6.82;;;4.60;99.90;;;;;;6195366;28;20406;-78
2024/03/31 04:23:46;;;;;;;16.98;6.38;;;4.60;99.90;;;;;;6201259;28;20394;-78
2024/03/31 04:26:46;;;;;;;19.17;7.40;;;4.70;99.90;;;;;;6179142;28;20062;-79
2024/03/31 04:29:47;;;;;;;22.73;8.07;;;4.70;99.90;;;;;;6197991;28;20058;-78
2024/03/31 04:32:47;;;;;;;18.35;7.97;;;4.70;99.90;;;;;;6218500;28;20147;-78
2024/03/31 04:35:48;;;;;;;26.73;10.13;;;4.80;99.90;;;;;;6195725;28;20523;-79
2024/03/31 04:38:49;;;;;;;23.58;10.35;;;5.00;99.90;;;;;;6217553;28;20058;-79
2024/03/31 04:41:49;;;;;;;32.13;12.93;;;5.30;99.90;;;;;;6194119;28;20529;-79
2024/03/31 04:44:50;;;;;;;43.45;15.20;;;5.40;99.90;;;;;;6196740;28;20058;-79
2024/03/31 04:47:51;;;;;;;35.33;15.15;;;5.40;99.90;;;;;;6217568;28;20464;-78
2024/03/31 04:50:52;;;;;;;32.60;14.77;;;5.60;99.90;;;;;;6194436;28;20127;-79
2024/03/31 04:53:52;;;;;;;34.20;15.15;;;5.50;99.90;;;;;;6217346;28;20061;-79
2024/03/31 04:56:53;;;;;;;35.70;15.55;;;5.60;99.90;;;;;;6194054;28;20465;-78
2024/03/31 04:59:54;;;;;;;49.30;19.65;;;5.60;99.90;;;;;;6211815;28;20761;-80
2024/03/31 05:02:54;;;;;;;59.10;24.48;;;5.60;99.90;;;;;;6193731;28;20058;-79
2024/03/31 05:05:55;;;;;;;56.25;24.80;;;6.00;99.90;;;;;;6205349;28;20066;-79
2024/03/31 05:08:55;;;;;;;59.20;26.38;;;6.20;99.90;;;;;;6216700;28;20058;-79
2024/03/31 05:11:56;;;;;;;57.10;24.48;;;6.30;99.90;;;;;;6195507;28;20054;-79
2024/03/31 05:14:57;;;;;;;63.65;27.10;;;6.40;99.90;;;;;;6199800;28;20420;-79
2024/03/31 05:17:57;;;;;;;62.25;25.05;;;6.50;99.90;;;;;;6198529;28;20054;-79
2024/03/31 05:20:58;;;;;;;62.47;26.10;;;6.60;99.90;;;;;;6221829;28;20057;-79
2024/03/31 05:23:58;;;;;;;67.50;27.45;;;6.80;99.90;;;;;;6198545;28;20058;-80
2024/03/31 05:26:59;;;;;;;63.08;26.63;;;6.80;99.90;;;;;;6221093;28;20061;-80
2024/03/31 05:30:00;;;;;;;60.85;25.55;;;7.00;99.90;;;;;;6187730;28;20083;-79
2024/03/31 05:33:00;;;;;;;61.40;27.25;;;7.00;99.90;;;;;;6221395;28;20053;-79
2024/03/31 05:36:01;;;;;;;65.00;26.70;;;7.10;99.90;;;;;;6198236;28;20046;-80
2024/03/31 05:39:02;;;;;;;69.53;26.77;;;7.20;99.90;;;;;;6221301;28;20085;-79
2024/03/31 05:42:03;;;;;;;65.15;27.17;;;7.40;99.90;;;;;;6198286;28;20054;-79
2024/03/31 05:45:03;;;;;;;66.05;27.05;;;7.40;99.90;;;;;;6204780;28;20062;-78
2024/03/31 05:48:04;;;;;;;69.32;25.33;;;7.50;99.90;;;;;;6220978;28;20107;-78
2024/03/31 05:51:04;;;;;;;65.22;26.60;;;7.60;99.90;;;;;;6198231;28;20054;-78
2024/03/31 05:54:05;;;;;;;67.93;26.38;;;7.60;99.90;;;;;;6220717;28;20456;-79
2024/03/31 05:57:06;;;;;;;62.33;25.75;;;7.70;99.90;;;;;;6197841;28;20057;-79
2024/03/31 06:00:06;;;;;;;63.92;25.15;;;7.70;99.90;;;;;;6215441;28;20065;-79
2024/03/31 06:03:07;;;;;;;61.05;25.35;;;7.80;99.90;;;;;;6197487;28;20579;-79
2024/03/31 06:06:08;;;;;;;57.15;24.02;;;7.90;99.90;;;;;;6207199;28;20097;-78
2024/03/31 06:09:08;;;;;;;52.97;23.23;;;7.90;99.90;;;;;;6220360;28;20416;-79
2024/03/31 06:12:09;;;;;;;52.05;23.50;;;8.00;99.90;;;;;;6197461;28;20203;-78
2024/03/31 06:15:10;;;;;;;51.20;22.67;;;8.10;99.90;;;;;;6215173;28;20069;-79
2024/03/31 06:18:10;;;;;;;48.40;21.60;;;8.10;99.90;;;;;;6197087;28;20100;-79
2024/03/31 06:21:11;;;;;;;48.58;23.00;;;8.20;99.90;;;;;;6220443;28;20053;-79
2024/03/31 06:24:12;;;;;;;50.38;22.98;;;8.30;99.90;;;;;;6196130;28;20069;-79
2024/03/31 06:27:13;;;;;;;45.38;21.83;;;8.40;99.90;;;;;;6219935;28;20062;-79
2024/03/31 06:30:13;;;;;;;47.17;21.55;;;8.40;99.90;;;;;;6191546;28;20062;-79
2024/03/31 06:33:14;;;;;;;50.45;22.60;;;8.50;99.90;;;;;;6220169;28;20387;-79
2024/03/31 06:36:14;;;;;;;47.25;22.00;;;8.50;99.90;;;;;;6197552;28;20473;-79
2024/03/31 06:39:15;;;;;;;44.92;21.70;;;8.50;99.90;;;;;;6220192;28;20066;-79
2024/03/31 06:42:16;;;;;;;42.95;21.27;;;8.60;99.90;;;;;;6196964;28;20150;-78
2024/03/31 06:45:17;;;;;;;40.17;20.35;;;8.60;99.90;;;;;;6201517;28;20073;-79
2024/03/31 06:48:18;;;;;;;36.40;19.15;;;8.60;99.90;;;;;;6219521;28;20506;-79
2024/03/31 06:51:18;;;;;;;38.85;19.70;;;8.60;99.90;;;;;;6196605;28;20074;-79
2024/03/31 06:54:19;;;;;;;35.78;18.13;;;8.70;99.90;;;;;;6219735;28;20058;-79
2024/03/31 06:57:19;;;;;;;38.80;18.10;;;8.80;99.90;;;;;;6196052;28;20510;-79
2024/03/31 07:00:20;;;;;;;39.30;18.65;;;8.80;99.90;;;;;;6204088;28;20065;-79
2024/03/31 07:03:21;;;;;;;31.02;17.27;;;8.80;99.90;;;;;;6196387;28;20064;-79
2024/03/31 07:06:21;;;;;;;38.08;17.70;;;8.90;99.90;;;;;;6203951;28;20054;-79
2024/03/31 07:09:22;;;;;;;33.47;18.00;;;8.90;99.90;;;;;;6219658;28;20498;-78
2024/03/31 07:12:23;;;;;;;37.10;19.23;;;9.00;99.90;;;;;;6195935;28;20064;-79
2024/03/31 07:15:24;;;;;;;37.97;18.85;;;9.20;99.90;;;;;;6218405;28;20540;-79
2024/03/31 07:18:25;;;;;;;37.60;17.85;;;9.30;99.90;;;;;;6195994;28;20054;-79
2024/03/31 07:21:26;;;;;;;33.42;17.40;;;10.00;99.90;;;;;;6219011;28;20068;-80
2024/03/31 07:24:26;;;;;;;32.38;16.92;;;10.10;99.90;;;;;;6195728;28;20058;-80
2024/03/31 07:27:27;;;;;;;32.92;17.25;;;11.00;99.90;;;;;;6218667;28;20674;-80
2024/03/31 07:30:28;;;;;;;30.48;15.85;;;11.30;99.90;;;;;;6189838;28;20058;-80
2024/03/31 07:33:29;;;;;;;29.55;15.25;;;11.30;99.90;;;;;;6219356;28;20057;-80
2024/03/31 07:36:29;;;;;;;28.90;15.32;;;11.00;99.90;;;;;;6195717;28;20062;-80
2024/03/31 07:39:30;;;;;;;27.95;14.40;;;10.70;99.90;;;;;;6221905;28;20092;-80
2024/03/31 07:42:31;;;;;;;29.25;14.77;;;10.60;99.90;;;;;;6200486;28;20488;-80
2024/03/31 07:45:32;;;;;;;30.10;14.70;;;10.70;99.90;;;;;;6199761;28;20093;-80
2024/03/31 07:48:32;;;;;;;25.80;13.07;;;10.60;99.90;;;;;;6203634;28;20089;-80
2024/03/31 07:51:33;;;;;;;35.08;12.88;;;10.60;99.90;;;;;;6195074;28;20050;-80
2024/03/31 07:54:34;;;;;;;22.88;13.00;;;10.60;99.90;;;;;;6218142;28;20053;-80
2024/03/31 07:57:35;;;;;;;23.33;12.70;;;10.60;99.90;;;;;;6195274;28;20156;-80
2024/03/31 08:00:36;;;;;;;28.65;13.57;;;10.70;99.90;;;;;;6212454;28;20093;-79
2024/03/31 08:03:36;;;;;;;26.65;13.68;;;10.60;99.90;;;;;;6194650;28;20430;-81
2024/03/31 08:06:37;;;;;;;26.67;14.23;;;10.60;99.90;;;;;;6200945;28;20069;-80
2024/03/31 08:09:37;;;;;;;27.73;13.93;;;10.70;99.90;;;;;;6217973;28;20053;-81
2024/03/31 08:12:38;;;;;;;25.00;14.25;;;10.80;99.90;;;;;;6194323;28;20644;-80
2024/03/31 08:15:39;;;;;;;28.10;14.40;;;10.70;99.90;;;;;;6198108;28;20061;-81
2024/03/31 08:18:42;;;;;;;25.67;13.75;;;10.70;99.90;;;;;;6194263;28;20054;-81
2024/03/31 08:21:43;;;;;;;27.90;13.77;;;10.60;99.90;;;;;;6217418;28;20674;-80
2024/03/31 08:24:44;;;;;;;27.85;14.93;;;10.70;99.90;;;;;;6193978;28;20054;-81
2024/03/31 08:27:44;;;;;;;26.00;13.70;;;10.90;99.90;;;;;;6217461;28;20752;-80
2024/03/31 08:30:45;;;;;;;26.10;13.50;;;11.20;99.90;;;;;;6176549;28;20050;-80
2024/03/31 08:33:46;;;;;;;23.77;13.27;;;11.30;99.90;;;;;;6217684;28;20050;-79
2024/03/31 08:36:47;;;;;;;24.77;12.43;;;11.40;99.90;;;;;;6194357;28;20061;-80
2024/03/31 08:39:47;;;;;;;22.77;11.40;;;11.60;99.90;;;;;;6217394;28;20140;-79
2024/03/31 08:42:48;;;;;;;24.15;11.48;;;11.50;99.90;;;;;;6194015;28;20422;-80
2024/03/31 08:45:49;;;;;;;25.00;11.52;;;11.30;99.90;;;;;;6211357;28;20267;-81
2024/03/31 08:48:50;;;;;;;19.73;10.10;;;11.40;99.90;;;;;;6194398;28;20055;-80
2024/03/31 08:51:50;;;;;;;20.85;10.68;;;11.60;99.30;;;;;;6217185;28;20586;-80
2024/03/31 08:54:51;;;;;;;19.33;10.00;;;11.50;99.00;;;;;;6193880;28;20064;-80
2024/03/31 08:57:51;;;;;;;21.55;9.73;;;11.70;99.90;;;;;;6217160;28;20057;-80
2024/03/31 09:00:52;;;;;;;19.00;9.75;;;11.80;96.00;;;;;;6188377;28;20486;-81
2024/03/31 09:03:53;;;;;;;19.50;9.70;;;11.90;96.70;;;;;;6177680;28;20050;-81
2024/03/31 09:06:53;;;;;;;18.02;9.90;;;12.00;96.00;;;;;;6197489;28;20109;-80
2024/03/31 09:09:54;;;;;;;20.20;9.82;;;11.90;94.80;;;;;;6193199;28;20056;-80
2024/03/31 09:12:54;;;;;;;20.33;9.90;;;11.90;93.80;;;;;;6216335;28;20057;-81
2024/03/31 09:15:55;;;;;;;17.25;10.18;;;11.90;94.90;;;;;;6193091;28;20070;-80
2024/03/31 09:18:56;;;;;;;21.15;10.68;;;11.80;94.10;;;;;;6169388;28;20055;-80
2024/03/31 09:21:57;;;;;;;20.50;11.40;;;11.60;94.80;;;;;;6215668;28;20642;-80
2024/03/31 09:24:57;;;;;;;21.52;10.98;;;11.50;95.90;;;;;;6177480;28;20042;-80
2024/03/31 09:28:00;;;;;;;20.77;10.90;;;11.40;98.00;;;;;;6199459;28;20516;-80
2024/03/31 09:31:00;;;;;;;22.45;11.65;;;11.30;99.60;;;;;;6188270;28;20054;-81
2024/03/31 09:34:01;;;;;;;22.23;11.13;;;11.40;98.30;;;;;;6169129;28;20058;-79
2024/03/31 09:37:02;;;;;;;28.58;12.32;;;11.30;98.70;;;;;;6215910;28;20076;-80
2024/03/31 09:40:03;;;;;;;27.65;12.15;;;11.30;99.50;;;;;;6193330;28;20058;-80
2024/03/31 09:43:03;;;;;;;23.95;12.40;;;11.20;99.90;;;;;;6214813;28;20056;-80
2024/03/31 09:46:04;;;;;;;45.13;14.40;;;11.20;99.90;;;;;;6166829;28;20141;-78
2024/03/31 09:49:05;;;;;;;30.77;13.23;;;11.20;99.90;;;;;;6200783;28;20089;-79
2024/03/31 09:52:06;;;;;;;25.67;13.45;;;11.10;99.90;;;;;;6193896;28;20200;-78
2024/03/31 09:55:06;;;;;;;28.02;13.35;;;11.10;99.90;;;;;;6200551;28;20050;-79
2024/03/31 09:58:11;;;;;;;26.60;12.95;;;11.10;99.90;;;;;;6195853;28;20054;-80
2024/03/31 10:01:12;;;;;;;26.95;13.57;;;11.10;99.90;;;;;;6200097;28;20641;-78
2024/03/31 10:04:13;;;;;;;28.90;14.57;;;11.10;99.90;;;;;;6173043;28;20190;-79
2024/03/31 10:07:13;;;;;;;27.83;14.05;;;11.10;99.90;;;;;;6209853;28;20058;-79
2024/03/31 10:10:14;;;;;;;28.42;14.88;;;11.20;99.90;;;;;;6220460;28;20587;-79
2024/03/31 10:13:15;;;;;;;27.08;13.25;;;11.30;99.90;;;;;;6179880;28;20099;-78
2024/03/31 10:16:16;;;;;;;25.35;14.05;;;11.50;99.90;;;;;;6220847;28;20050;-79
2024/03/31 10:19:16;;;;;;;26.10;13.07;;;11.60;99.90;;;;;;6172980;28;20058;-79
2024/03/31 10:22:17;;;;;;;25.67;14.30;;;11.80;99.90;;;;;;6219464;28;20720;-78
2024/03/31 10:25:18;;;;;;;24.48;14.15;;;12.10;96.80;;;;;;6180752;28;20153;-79
2024/03/31 10:28:19;;;;;;;29.15;15.55;;;12.20;95.00;;;;;;6195085;28;20062;-80
2024/03/31 10:31:19;;;;;;;30.38;15.88;;;12.10;95.70;;;;;;6180358;28;20076;-79
2024/03/31 10:34:20;;;;;;;30.67;15.30;;;12.30;95.80;;;;;;6172306;28;20078;-79
2024/03/31 10:37:20;;;;;;;27.98;14.00;;;12.90;94.80;;;;;;6219103;28;20513;-81
2024/03/31 10:40:25;;;;;;;24.45;12.52;;;13.40;82.00;;;;;;6180591;28;20102;-80
2024/03/31 10:43:26;;;;;;;23.77;12.32;;;13.60;80.70;;;;;;6205669;28;20066;-80
2024/03/31 10:46:27;;;;;;;22.05;12.60;;;13.40;74.80;;;;;;6195813;28;20069;-80
2024/03/31 10:49:27;;;;;;;22.45;12.60;;;13.40;72.40;;;;;;6203295;28;20497;-80
2024/03/31 10:52:28;;;;;;;23.73;13.27;;;13.10;78.50;;;;;;6196388;28;20396;-80
2024/03/31 10:55:29;;;;;;;23.60;12.18;;;13.20;80.40;;;;;;6219546;28;20065;-80
2024/03/31 10:58:29;;;;;;;23.58;11.85;;;12.80;76.20;;;;;;6195940;28;20598;-80
2024/03/31 11:01:30;;;;;;;23.45;12.52;;;12.70;81.60;;;;;;6220243;28;20050;-80
2024/03/31 11:04:30;;;;;;;24.58;12.95;;;12.70;83.00;;;;;;6171288;28;20054;-80
2024/03/31 11:07:32;;;;;;;21.63;12.05;;;12.60;86.30;;;;;;6209132;28;20058;-80
2024/03/31 11:10:32;;;;;;;19.52;10.95;;;12.70;88.50;;;;;;6218380;28;20101;-80
2024/03/31 11:13:33;;;;;;;23.95;11.73;;;12.70;84.50;;;;;;6179706;28;20101;-80
2024/03/31 11:16:34;;;;;;;22.67;11.95;;;12.60;83.80;;;;;;6203817;28;20058;-80
2024/03/31 11:19:34;;;;;;;22.42;11.60;;;12.70;90.20;;;;;;6195819;28;20679;-79
2024/03/31 11:22:36;;;;;;;22.05;11.52;;;12.80;82.80;;;;;;6202838;28;20058;-80
2024/03/31 11:25:37;;;;;;;23.65;11.13;;;12.70;87.40;;;;;;6179662;28;20074;-80
2024/03/31 11:28:38;;;;;;;21.15;11.75;;;13.10;85.90;;;;;;6207369;28;20058;-80
2024/03/31 11:31:38;;;;;;;23.88;11.95;;;13.30;84.70;;;;;;6195125;28;20066;-81
2024/03/31 11:34:39;;;;;;;17.65;10.13;;;13.70;81.30;;;;;;6218109;28;20459;-80
2024/03/31 11:37:40;;;;;;;21.08;9.85;;;13.90;58.80;;;;;;6178897;28;20062;-80
2024/03/31 11:40:41;;;;;;;17.58;9.70;;;14.20;42.50;;;;;;6216837;28;20081;-81
2024/03/31 11:43:42;;;;;;;21.67;10.10;;;14.50;37.10;;;;;;6196388;28;20136;-81
2024/03/31 11:46:42;;;;;;;22.50;9.45;;;14.40;29.60;;;;;;6219116;28;20764;-81
2024/03/31 11:49:43;;;;;;;17.63;8.75;;;14.40;31.90;;;;;;6194861;28;20054;-80
2024/03/31 11:52:44;;;;;;;18.13;8.32;;;14.80;28.70;;;;;;6218744;28;20152;-80
2024/03/31 11:55:45;;;;;;;16.23;7.13;;;15.20;15.30;;;;;;6196784;28;20644;-80
2024/03/31 11:58:45;;;;;;;16.55;6.35;;;15.40;2.70;;;;;;6189687;28;20070;-80
2024/03/31 12:01:46;;;;;;;15.38;6.07;;;15.70;1.00;;;;;;6178265;28;20558;-81
2024/03/31 12:04:47;;;;;;;13.75;6.00;;;15.50;1.00;;;;;;6215770;28;20064;-80
2024/03/31 12:07:48;;;;;;;17.05;7.28;;;15.60;1.00;;;;;;6194451;28;20104;-80
2024/03/31 12:10:48;;;;;;;19.95;8.68;;;15.70;1.00;;;;;;6216832;28;20571;-80
2024/03/31 12:13:49;;;;;;;18.08;8.60;;;15.60;1.00;;;;;;6197097;28;20050;-81
2024/03/31 12:16:50;;;;;;;16.95;8.80;;;15.30;1.00;;;;;;6195391;28;20062;-81
2024/03/31 12:19:50;;;;;;;20.00;9.63;;;15.10;10.10;;;;;;6218460;28;20049;-81
2024/03/31 12:22:51;;;;;;;19.50;10.85;;;15.10;8.10;;;;;;6195944;28;20054;-81
2024/03/31 12:25:52;;;;;;;23.45;9.90;;;15.20;12.80;;;;;;6217018;28;20559;-81
2024/03/31 12:28:53;;;;;;;21.05;10.07;;;15.50;10.40;;;;;;6197221;28;20678;-81
2024/03/31 12:31:53;;;;;;;19.67;10.00;;;15.30;10.20;;;;;;6177955;28;20062;-81
2024/03/31 12:34:54;;;;;;;21.67;10.63;;;15.30;13.30;;;;;;6217212;28;20058;-81
2024/03/31 12:37:55;;;;;;;23.00;10.50;;;15.20;16.00;;;;;;6194230;28;20050;-81
2024/03/31 12:40:56;;;;;;;17.80;8.85;;;15.60;6.40;;;;;;6216088;28;20065;-79
2024/03/31 12:43:56;;;;;;;17.85;9.05;;;15.90;3.80;;;;;;6180798;28;20045;-79
2024/03/31 12:46:57;;;;;;;18.35;9.77;;;16.80;3.70;;;;;;6217795;28;20145;-80
2024/03/31 12:49:58;;;;;;;18.40;8.80;;;17.70;1.00;;;;;;6177669;28;20076;-80
2024/03/31 12:52:59;;;;;;;16.00;8.82;;;17.40;1.00;;;;;;6216952;28;20064;-81
2024/03/31 12:56:00;;;;;;;20.70;9.32;;;17.30;1.00;;;;;;6178931;28;20140;-80
2024/03/31 12:59:01;;;;;;;21.05;8.77;;;17.20;1.00;;;;;;6202490;28;20605;-81
2024/03/31 13:02:02;;;;;;;23.05;9.65;;;17.00;1.00;;;;;;6216945;28;20137;-81
2024/03/31 13:05:02;;;;;;;15.20;9.60;;;17.10;1.00;;;;;;6175957;28;20530;-81
2024/03/31 13:08:03;;;;;;;23.10;9.18;;;17.30;1.00;;;;;;6177592;28;20058;-81
2024/03/31 13:11:04;;;;;;;19.13;9.45;;;17.40;1.00;;;;;;6176803;28;20137;-80
2024/03/31 13:14:05;;;;;;;19.85;8.75;;;17.90;1.00;;;;;;6206749;28;20057;-79
2024/03/31 13:17:06;;;;;;;20.30;8.82;;;18.20;1.00;;;;;;6217452;28;20053;-80
2024/03/31 13:20:07;;;;;;;16.83;8.05;;;18.90;1.00;;;;;;6193730;28;20077;-80
2024/03/31 13:23:08;;;;;;;20.88;9.00;;;19.20;1.00;;;;;;6200730;28;20065;-80
2024/03/31 13:26:09;;;;;;;18.25;8.65;;;19.20;1.00;;;;;;6193782;28;20054;-80
2024/03/31 13:29:10;;;;;;;17.17;8.13;;;18.80;1.00;;;;;;6184287;28;20073;-81
2024/03/31 13:32:11;;;;;;;16.10;7.82;;;19.60;1.00;;;;;;6216396;28;20054;-81
2024/03/31 13:35:12;;;;;;;14.48;7.80;;;20.00;1.00;;;;;;6197686;28;20455;-81
2024/03/31 13:38:12;;;;;;;15.15;8.52;;;19.70;1.00;;;;;;6204499;28;20089;-81
2024/03/31 13:41:16;;;;;;;15.70;7.45;;;18.70;1.00;;;;;;6181786;28;20093;-81
2024/03/31 13:44:17;;;;;;;14.95;7.95;;;18.00;1.00;;;;;;6183393;28;20066;-81
2024/03/31 13:47:18;;;;;;;16.65;8.52;;;17.20;1.00;;;;;;6197864;28;20054;-81
2024/03/31 13:50:19;;;;;;;19.35;10.18;;;16.90;1.00;;;;;;6204955;28;20065;-80
2024/03/31 13:53:20;;;;;;;17.05;9.57;;;16.50;1.00;;;;;;6179782;28;20560;-81
2024/03/31 13:56:21;;;;;;;20.38;10.02;;;16.40;1.00;;;;;;6197380;28;20061;-80
2024/03/31 13:59:22;;;;;;;19.17;9.90;;;16.30;1.00;;;;;;6186345;28;20047;-80
2024/03/31 14:02:22;;;;;;;20.15;10.88;;;16.20;1.00;;;;;;6220825;28;20065;-81
2024/03/31 14:05:23;;;;;;;17.75;10.38;;;16.00;1.00;;;;;;6197702;28;20728;-81
2024/03/31 14:08:24;;;;;;;20.20;10.50;;;15.90;1.00;;;;;;6204357;28;20050;-80
2024/03/31 14:11:25;;;;;;;22.35;10.98;;;16.00;1.00;;;;;;6181738;28;20144;-81
2024/03/31 14:14:26;;;;;;;21.42;11.20;;;15.70;1.00;;;;;;6185976;28;20446;-80
2024/03/31 14:17:27;;;;;;;18.85;10.77;;;15.60;1.00;;;;;;6220098;28;20132;-81
2024/03/31 14:20:29;;;;;;;18.38;9.80;;;15.50;1.00;;;;;;6197517;28;20058;-80
2024/03/31 14:23:30;;;;;;;23.27;10.63;;;15.50;1.00;;;;;;6204421;28;20064;-81
2024/03/31 14:26:32;;;;;;;21.08;10.60;;;15.30;1.00;;;;;;6196627;28;20065;-80
2024/03/31 14:29:33;;;;;;;20.33;10.07;;;15.30;1.00;;;;;;6179695;28;20062;-80
2024/03/31 14:32:33;;;;;;;17.85;10.40;;;15.20;1.00;;;;;;6203426;28;20116;-80
2024/03/31 14:35:35;;;;;;;17.65;11.40;;;15.10;1.00;;;;;;6180866;28;20054;-80
2024/03/31 14:38:36;;;;;;;20.20;11.75;;;15.00;1.00;;;;;;6221014;28;20060;-80
2024/03/31 14:41:37;;;;;;;18.60;11.45;;;14.70;7.20;;;;;;6180759;28;20569;-81
2024/03/31 14:44:42;;;;;;;18.27;10.90;;;14.60;12.40;;;;;;6199577;28;20066;-80
2024/03/31 14:47:43;;;;;;;19.30;10.57;;;14.70;17.90;;;;;;6220433;28;20057;-81
2024/03/31 14:50:44;;;;;;;19.48;11.57;;;15.00;11.20;;;;;;6196414;28;20477;-82
2024/03/31 14:53:44;;;;;;;24.58;12.20;;;14.80;7.60;;;;;;6197377;28;20086;-81
2024/03/31 14:56:45;;;;;;;19.38;11.45;;;14.90;7.00;;;;;;6195436;28;20050;-81
2024/03/31 14:59:46;;;;;;;20.67;11.48;;;14.80;11.30;;;;;;6205999;28;20152;-80
2024/03/31 15:02:47;;;;;;;22.67;9.95;;;14.80;10.00;;;;;;6196190;28;20395;-81
2024/03/31 15:05:50;;;;;;;16.48;9.98;;;14.80;4.20;;;;;;6219580;28;20053;-80
2024/03/31 15:08:53;;;;;;;18.15;9.10;;;15.30;1.00;;;;;;6196360;28;20058;-81
2024/03/31 15:11:54;;;;;;;20.67;9.38;;;16.00;1.00;;;;;;6202842;28;20049;-81
2024/03/31 15:14:55;;;;;;;17.58;9.25;;;16.20;1.00;;;;;;6185342;28;20516;-81
2024/03/31 15:17:56;;;;;;;19.92;10.13;;;15.90;1.00;;;;;;6219030;28;20053;-79
2024/03/31 15:20:57;;;;;;;17.23;10.00;;;15.30;1.00;;;;;;6179752;28;20104;-80
2024/03/31 15:23:58;;;;;;;17.40;10.10;;;15.30;1.00;;;;;;6218027;28;20529;-81
2024/03/31 15:26:59;;;;;;;17.42;10.27;;;15.10;1.00;;;;;;6195005;28;20137;-80
2024/03/31 15:30:00;;;;;;;21.20;10.07;;;14.70;1.00;;;;;;6196832;28;20085;-80